createdAt,value
2019-03-08T00:01:24.237Z,86.37
2019-03-08T00:03:50.929Z,87.56
2019-03-08T00:06:19.328Z,88.90
2019-03-08T00:08:47.480Z,86.96
2019-03-08T00:11:14.204Z,86.40
2019-03-08T00:13:40.942Z,86.61
2019-03-08T00:16:07.991Z,85.28
2019-03-08T00:18:34.727Z,82.68
2019-03-08T00:21:01.474Z,81.51
2019-03-08T00:23:28.206Z,81.80
2019-03-08T00:25:54.908Z,84.69
2019-03-08T00:28:21.663Z,84.02
2019-03-08T00:30:48.388Z,85.19
2019-03-08T00:33:15.513Z,84.45
2019-03-08T00:35:42.198Z,85.30
2019-03-08T00:38:08.918Z,83.45
2019-03-08T00:40:35.661Z,84.52
2019-03-08T00:43:02.502Z,84.48
2019-03-08T00:45:29.240Z,83.99
2019-03-08T00:47:55.966Z,84.61
2019-03-08T00:50:23.113Z,84.12
2019-03-08T00:52:49.845Z,84.20
2019-03-08T00:55:16.552Z,85.75
2019-03-08T00:57:43.263Z,84.85
2019-03-08T01:00:12.513Z,85.53
2019-03-08T01:02:39.536Z,83.59
2019-03-08T01:05:06.956Z,85.61
2019-03-08T01:07:33.780Z,86.66
2019-03-08T01:10:00.516Z,85.98
2019-03-08T01:12:27.237Z,85.41
2019-03-08T01:14:53.976Z,85.26
2019-03-08T01:17:23.146Z,84.89
2019-03-08T01:19:49.878Z,85.63
2019-03-08T01:22:16.616Z,85.96
2019-03-08T01:24:43.352Z,84.17
2019-03-08T01:27:10.100Z,84.98
2019-03-08T01:29:36.844Z,86.37
2019-03-08T01:32:05.455Z,84.37
2019-03-08T01:34:32.265Z,86.68
2019-03-08T01:36:59.167Z,84.60
2019-03-08T01:39:25.900Z,85.50
2019-03-08T01:41:52.624Z,84.16
2019-03-08T01:44:19.372Z,83.99
2019-03-08T01:46:46.093Z,84.98
2019-03-08T01:49:12.851Z,86.92
2019-03-08T01:51:42.174Z,86.72
2019-03-08T01:54:08.913Z,86.09
2019-03-08T01:56:35.656Z,85.20
2019-03-08T01:59:02.396Z,84.84
2019-03-08T02:01:29.130Z,83.73
2019-03-08T02:03:56.204Z,84.73
2019-03-08T02:06:23.310Z,83.19
2019-03-08T02:08:51.969Z,82.78
2019-03-08T02:11:19.123Z,82.30
2019-03-08T02:13:45.848Z,81.78
2019-03-08T02:16:12.584Z,83.30
2019-03-08T02:18:39.299Z,82.06
2019-03-08T02:21:07.009Z,83.85
2019-03-08T02:23:34.663Z,83.59
2019-03-08T02:26:01.394Z,83.67
2019-03-08T02:28:28.121Z,84.42
2019-03-08T02:30:54.840Z,82.46
2019-03-08T02:33:21.570Z,82.68
2019-03-08T02:35:48.296Z,82.56
2019-03-08T02:38:15.016Z,82.18
2019-03-08T02:40:42.020Z,82.49
2019-03-08T02:43:13.753Z,82.28
2019-03-08T02:45:40.450Z,81.68
2019-03-08T02:48:07.196Z,81.55
2019-03-08T02:50:33.938Z,82.26
2019-03-08T02:53:00.675Z,82.53
2019-03-08T02:55:27.415Z,83.19
2019-03-08T02:57:56.745Z,80.69
2019-03-08T03:00:25.140Z,80.83
2019-03-08T03:02:51.850Z,80.59
2019-03-08T03:05:21.153Z,79.79
2019-03-08T03:07:48.154Z,80.73
2019-03-08T03:10:14.865Z,81.13
2019-03-08T03:12:41.589Z,79.10
2019-03-08T03:15:11.350Z,79.54
2019-03-08T03:17:38.072Z,80.68
2019-03-08T03:20:05.034Z,81.34
2019-03-08T03:22:31.782Z,79.30
2019-03-08T03:24:58.528Z,78.60
2019-03-08T03:27:25.552Z,76.77
2019-03-08T03:29:52.302Z,77.39
2019-03-08T03:32:19.047Z,77.02
2019-03-08T03:34:45.794Z,77.91
2019-03-08T03:37:12.509Z,77.85
2019-03-08T03:39:39.247Z,75.84
2019-03-08T03:42:06.016Z,74.91
2019-03-08T03:44:32.740Z,75.97
2019-03-08T03:46:59.467Z,77.31
2019-03-08T03:49:26.182Z,76.67
2019-03-08T03:51:53.296Z,76.21
2019-03-08T03:54:20.021Z,77.22
2019-03-08T03:56:47.107Z,75.79
2019-03-08T03:59:16.803Z,76.23
2019-03-08T04:01:48.203Z,76.34
2019-03-08T04:04:14.954Z,76.07
2019-03-08T04:06:41.712Z,76.95
2019-03-08T04:09:10.446Z,76.16
2019-03-08T04:11:37.214Z,76.46
2019-03-08T04:14:05.809Z,75.37
2019-03-08T04:16:32.566Z,76.74
2019-03-08T04:18:59.304Z,75.29
2019-03-08T04:21:27.829Z,75.87
2019-03-08T04:23:54.559Z,76.77
2019-03-08T04:26:21.310Z,76.14
2019-03-08T04:28:48.020Z,76.49
2019-03-08T04:31:14.763Z,76.75
2019-03-08T04:33:41.847Z,76.25
2019-03-08T04:36:08.547Z,76.14
2019-03-08T04:38:35.393Z,76.16
2019-03-08T04:41:02.212Z,75.73
2019-03-08T04:43:28.977Z,75.54
2019-03-08T04:45:55.699Z,74.30
2019-03-08T04:48:22.434Z,76.08
2019-03-08T04:50:49.272Z,75.06
2019-03-08T04:53:15.981Z,75.34
2019-03-08T04:55:44.537Z,75.14
2019-03-08T04:58:11.259Z,75.14
2019-03-08T05:00:38.160Z,74.26
2019-03-08T05:03:04.981Z,74.03
2019-03-08T05:05:31.712Z,74.70
2019-03-08T05:07:58.703Z,75.36
2019-03-08T05:10:25.455Z,74.88
2019-03-08T05:12:52.189Z,74.75
2019-03-08T05:15:18.908Z,74.54
2019-03-08T05:17:45.648Z,74.71
2019-03-08T05:20:12.374Z,73.83
2019-03-08T05:22:39.098Z,74.93
2019-03-08T05:25:05.818Z,74.22
2019-03-08T05:27:33.171Z,74.13
2019-03-08T05:29:59.898Z,74.49
2019-03-08T05:32:28.755Z,74.29
2019-03-08T05:34:55.545Z,74.23
2019-03-08T05:37:22.289Z,75.01
2019-03-08T05:39:48.997Z,73.29
2019-03-08T05:42:15.725Z,73.93
2019-03-08T05:44:42.759Z,73.85
2019-03-08T05:47:12.108Z,73.84
2019-03-08T05:49:38.835Z,73.32
2019-03-08T05:52:07.801Z,73.58
2019-03-08T05:54:34.539Z,73.21
2019-03-08T05:57:01.238Z,73.43
2019-03-08T05:59:29.646Z,74.15
2019-03-08T06:01:56.374Z,74.15
2019-03-08T06:04:24.126Z,74.26
2019-03-08T06:06:52.795Z,74.26
2019-03-08T06:09:22.523Z,73.35
2019-03-08T06:11:49.987Z,73.09
2019-03-08T06:14:16.695Z,72.39
2019-03-08T06:16:43.817Z,72.58
2019-03-08T06:19:10.540Z,73.70
2019-03-08T06:21:37.313Z,72.50
2019-03-08T06:24:04.048Z,74.24
2019-03-08T06:26:30.850Z,73.48
2019-03-08T06:28:57.603Z,73.33
2019-03-08T06:31:26.359Z,71.94
2019-03-08T06:33:53.197Z,72.90
2019-03-08T06:36:20.247Z,71.85
2019-03-08T06:38:48.915Z,71.87
2019-03-08T06:41:15.667Z,72.36
2019-03-08T06:43:42.523Z,72.21
2019-03-08T06:46:09.252Z,74.04
2019-03-08T06:48:36.377Z,77.61
2019-03-08T06:51:03.099Z,76.39
2019-03-08T06:53:29.941Z,74.55
2019-03-08T06:55:57.722Z,73.73
2019-03-08T06:58:45.197Z,70.99
2019-03-08T07:01:19.431Z,69.40
2019-03-08T07:03:46.377Z,67.77
2019-03-08T07:06:13.099Z,68.90
2019-03-08T07:08:41.153Z,67.56
2019-03-08T07:11:10.707Z,69.52
2019-03-08T07:13:37.575Z,71.15
2019-03-08T07:16:12.640Z,71.48
2019-03-08T07:18:32.933Z,70.64
2019-03-08T07:21:08.931Z,72.09
2019-03-08T07:23:42.634Z,71.67
2019-03-08T07:26:41.532Z,71.20
2019-03-08T07:29:16.460Z,71.96
2019-03-08T07:32:06.235Z,71.61
2019-03-08T07:34:51.210Z,72.53
2019-03-08T07:37:28.365Z,72.73
2019-03-08T07:40:27.046Z,73.08
2019-03-08T07:43:31.771Z,72.46
2019-03-08T07:46:20.682Z,74.23
2019-03-08T07:48:57.553Z,73.34
2019-03-08T07:51:42.783Z,73.02
2019-03-08T07:54:18.877Z,73.72
2019-03-08T07:56:52.560Z,74.68
2019-03-08T07:59:42.836Z,74.00
2019-03-08T08:02:31.648Z,74.09
2019-03-08T08:05:24.601Z,74.25
2019-03-08T08:08:08.820Z,74.48
2019-03-08T08:10:57.980Z,75.10
2019-03-08T08:13:52.773Z,74.98
2019-03-08T08:16:41.666Z,75.57
2019-03-08T08:19:40.633Z,75.54
2019-03-08T08:22:20.726Z,75.15
2019-03-08T08:25:00.942Z,74.83
2019-03-08T08:27:37.838Z,75.09
2019-03-08T08:30:16.974Z,75.45
2019-03-08T08:33:02.161Z,75.57
2019-03-08T08:36:01.092Z,75.52
2019-03-08T08:38:55.609Z,75.18
2019-03-08T08:41:47.766Z,74.32
2019-03-08T08:44:43.161Z,73.91
2019-03-08T08:47:32.479Z,73.90
2019-03-08T08:50:07.043Z,74.08
2019-03-08T08:52:40.445Z,74.02
2019-03-08T08:55:25.474Z,73.59
2019-03-08T08:58:23.826Z,72.60
2019-03-08T09:01:13.070Z,72.18
2019-03-08T09:03:58.224Z,72.60
2019-03-08T09:06:36.274Z,72.58
2019-03-08T09:09:33.616Z,72.26
2019-03-08T09:12:11.742Z,72.25
2019-03-08T09:15:00.961Z,72.77
2019-03-08T09:17:42.846Z,73.76
2019-03-08T09:20:29.353Z,73.76
2019-03-08T09:23:10.111Z,73.76
2019-03-08T09:25:49.850Z,74.32
2019-03-08T09:28:36.351Z,74.71
2019-03-08T09:31:16.832Z,75.52
2019-03-08T09:34:01.939Z,75.47
2019-03-08T09:36:38.214Z,75.33
2019-03-08T09:39:15.512Z,75.56
2019-03-08T09:42:04.779Z,75.27
2019-03-08T09:44:51.147Z,75.80
2019-03-08T09:47:37.416Z,75.72
2019-03-08T09:50:23.167Z,76.03
2019-03-08T09:53:21.665Z,75.17
2019-03-08T09:55:56.467Z,75.86
2019-03-08T09:58:41.958Z,76.11
2019-03-08T10:01:20.051Z,76.19
2019-03-08T10:04:06.482Z,76.79
2019-03-08T10:06:54.387Z,77.61
2019-03-08T10:10:01.679Z,77.69
2019-03-08T10:12:48.064Z,78.60
2019-03-08T10:15:36.120Z,79.08
2019-03-08T10:18:27.355Z,78.33
2019-03-08T10:21:25.793Z,78.34
2019-03-08T10:24:11.298Z,78.60
2019-03-08T10:27:06.588Z,79.03
2019-03-08T10:30:05.093Z,78.14
2019-03-08T10:32:40.849Z,78.11
2019-03-08T10:35:37.040Z,78.34
2019-03-08T10:38:22.509Z,78.17
2019-03-08T10:41:09.264Z,77.66
2019-03-08T10:43:55.734Z,77.40
2019-03-08T10:46:48.220Z,77.17
2019-03-08T10:49:42.099Z,77.20
2019-03-08T10:52:37.208Z,76.99
2019-03-08T10:55:20.051Z,75.89
2019-03-08T10:58:05.074Z,76.02
2019-03-08T11:00:47.482Z,76.29
2019-03-08T11:03:40.192Z,76.40
2019-03-08T11:06:13.838Z,75.96
2019-03-08T11:09:03.099Z,76.04
2019-03-08T11:11:54.436Z,75.81
2019-03-08T11:14:35.396Z,74.79
2019-03-08T11:17:20.378Z,74.36
2019-03-08T11:20:07.087Z,74.32
2019-03-08T11:22:43.367Z,73.63
2019-03-08T11:25:34.814Z,74.18
2019-03-08T11:28:21.301Z,74.23
2019-03-08T11:31:17.374Z,74.44
2019-03-08T11:34:03.788Z,74.47
2019-03-08T11:36:49.865Z,74.04
2019-03-08T11:39:35.040Z,73.55
2019-03-08T11:42:19.724Z,72.76
2019-03-08T11:44:55.774Z,72.69
2019-03-08T11:47:42.164Z,71.90
2019-03-08T11:50:28.842Z,71.64
2019-03-08T11:53:02.595Z,71.66
2019-03-08T11:55:42.826Z,70.97
2019-03-08T11:58:27.773Z,70.68
2019-03-08T12:01:14.332Z,70.19
2019-03-08T12:04:00.735Z,70.09
2019-03-08T12:06:40.530Z,69.58
2019-03-08T12:09:21.436Z,69.95
2019-03-08T12:12:07.411Z,70.02
2019-03-08T12:15:04.580Z,70.21
2019-03-08T12:17:50.936Z,70.01
2019-03-08T12:20:26.853Z,70.43
2019-03-08T12:23:21.936Z,70.29
2019-03-08T12:26:08.611Z,70.54
2019-03-08T12:28:45.537Z,69.87
2019-03-08T12:31:30.196Z,69.67
2019-03-08T12:34:15.115Z,68.98
2019-03-08T12:36:49.970Z,68.99
2019-03-08T12:39:30.471Z,69.38
2019-03-08T12:42:25.958Z,69.23
2019-03-08T12:45:01.138Z,68.21
2019-03-08T12:47:53.298Z,67.68
2019-03-08T12:50:37.665Z,66.97
2019-03-08T12:53:39.266Z,66.39
2019-03-08T12:56:22.596Z,66.27
2019-03-08T12:59:07.711Z,65.48
2019-03-08T13:01:47.078Z,65.00
2019-03-08T13:04:43.004Z,64.48
2019-03-08T13:07:22.529Z,67.22
2019-03-08T13:09:49.336Z,71.76
2019-03-08T13:12:16.808Z,74.52
2019-03-08T13:14:43.507Z,75.50
2019-03-08T13:17:10.415Z,76.13
2019-03-08T13:19:40.182Z,77.16
2019-03-08T13:22:06.956Z,77.23
2019-03-08T13:24:33.985Z,77.55
2019-03-08T13:27:00.694Z,77.02
2019-03-08T13:29:27.533Z,77.72
2019-03-08T13:31:54.243Z,79.17
2019-03-08T13:34:20.966Z,80.56
2019-03-08T13:36:47.976Z,79.57
2019-03-08T13:39:15.039Z,79.50
2019-03-08T13:41:43.670Z,78.70
2019-03-08T13:44:10.400Z,75.92
2019-03-08T13:46:37.155Z,73.17
2019-03-08T13:49:03.861Z,72.09
2019-03-08T13:51:30.595Z,72.03
2019-03-08T13:53:57.354Z,72.56
2019-03-08T13:56:24.070Z,71.85
2019-03-08T13:58:50.858Z,72.35
2019-03-08T14:01:17.571Z,71.60
2019-03-08T14:03:44.436Z,72.28
2019-03-08T14:06:11.373Z,71.85
2019-03-08T14:08:38.193Z,71.13
2019-03-08T14:11:07.849Z,67.78
2019-03-08T14:13:34.525Z,67.00
2019-03-08T14:16:01.288Z,68.00
2019-03-08T14:18:28.273Z,66.03
2019-03-08T14:20:55.151Z,65.00
2019-03-08T14:23:21.993Z,64.87
2019-03-08T14:25:48.681Z,65.15
2019-03-08T14:28:15.400Z,66.17
2019-03-08T14:30:57.769Z,66.23
2019-03-08T14:33:19.878Z,66.15
2019-03-08T14:35:46.626Z,67.10
2019-03-08T14:38:13.517Z,67.13
2019-03-08T14:40:53.254Z,67.78
2019-03-08T14:43:29.445Z,68.01
2019-03-08T14:46:03.884Z,68.49
2019-03-08T14:48:30.735Z,68.94
2019-03-08T14:50:57.847Z,68.80
2019-03-08T14:53:28.335Z,67.18
2019-03-08T14:55:59.102Z,67.25
2019-03-08T14:58:23.944Z,66.84
2019-03-08T15:00:50.640Z,67.22
2019-03-08T15:03:20.276Z,67.99
2019-03-08T15:05:54.878Z,66.36
2019-03-08T15:08:20.059Z,64.92
2019-03-08T15:10:47.392Z,64.27
2019-03-08T15:13:15.538Z,63.94
2019-03-08T15:15:45.050Z,62.49
2019-03-08T15:18:12.290Z,62.61
2019-03-08T15:20:39.010Z,63.27
2019-03-08T15:23:05.993Z,64.29
2019-03-08T15:25:32.735Z,64.68
2019-03-08T15:27:59.457Z,64.97
2019-03-08T15:30:26.192Z,64.17
2019-03-08T15:32:56.185Z,64.64
2019-03-08T15:35:23.001Z,63.30
2019-03-08T15:37:53.426Z,63.79
2019-03-08T15:40:20.323Z,62.48
2019-03-08T15:42:47.031Z,62.67
2019-03-08T15:45:17.638Z,59.24
2019-03-08T15:47:44.734Z,59.41
2019-03-08T15:50:13.593Z,59.50
2019-03-08T15:52:40.655Z,59.23
2019-03-08T15:55:07.504Z,58.13
2019-03-08T15:57:34.333Z,56.65
2019-03-08T16:00:01.958Z,56.63
2019-03-08T16:02:31.129Z,55.87
2019-03-08T16:04:57.855Z,55.10
2019-03-08T16:07:27.048Z,52.96
2019-03-08T16:09:53.320Z,53.22
2019-03-08T16:12:20.053Z,52.75
2019-03-08T16:14:46.744Z,51.97
2019-03-08T16:17:13.542Z,52.08
2019-03-08T16:19:40.723Z,51.77
2019-03-08T16:22:08.727Z,51.27
2019-03-08T16:24:35.521Z,50.06
2019-03-08T16:27:03.596Z,50.67
2019-03-08T16:29:33.789Z,50.66
2019-03-08T16:32:20.440Z,49.50
2019-03-08T16:34:49.045Z,48.99
2019-03-08T16:37:27.618Z,49.44
2019-03-08T16:40:17.934Z,49.88
2019-03-08T16:43:07.624Z,49.11
2019-03-08T16:45:50.654Z,50.21
2019-03-08T16:48:27.727Z,49.02
2019-03-08T16:51:09.142Z,47.90
2019-03-08T16:53:41.119Z,48.50
2019-03-08T16:56:32.259Z,48.92
2019-03-08T16:59:18.096Z,49.64
2019-03-08T17:02:07.451Z,49.74
2019-03-08T17:04:45.069Z,50.02
2019-03-08T17:07:29.288Z,50.22
2019-03-08T17:10:08.053Z,50.03
2019-03-08T17:12:54.403Z,49.92
2019-03-08T17:15:59.159Z,49.72
2019-03-08T17:18:42.675Z,50.51
2019-03-08T17:21:27.813Z,50.62
2019-03-08T17:24:08.115Z,50.62
2019-03-08T17:27:00.324Z,50.61
2019-03-08T17:29:34.670Z,50.66
2019-03-08T17:32:19.644Z,51.54
2019-03-08T17:35:17.706Z,51.24
2019-03-08T17:37:53.308Z,51.74
2019-03-08T17:40:28.075Z,52.31
2019-03-08T17:43:05.412Z,52.08
2019-03-08T17:45:49.827Z,53.17
2019-03-08T17:48:34.830Z,52.43
2019-03-08T17:51:20.180Z,53.60
2019-03-08T17:54:10.102Z,53.70
2019-03-08T17:56:48.287Z,53.53
2019-03-08T17:59:37.915Z,53.99
2019-03-08T18:02:11.267Z,54.16
2019-03-08T18:04:56.552Z,54.87
2019-03-08T18:07:43.172Z,55.53
2019-03-08T18:10:21.815Z,55.83
2019-03-08T18:13:06.629Z,56.42
2019-03-08T18:15:51.800Z,55.83
2019-03-08T18:18:38.169Z,56.90
2019-03-08T18:21:11.059Z,56.72
2019-03-08T18:23:49.701Z,56.66
2019-03-08T18:26:26.638Z,56.57
2019-03-08T18:29:03.255Z,56.92
2019-03-08T18:32:04.791Z,57.20
2019-03-08T18:34:39.408Z,57.40
2019-03-08T18:37:14.910Z,57.10
2019-03-08T18:40:13.253Z,57.53
2019-03-08T18:42:49.523Z,57.46
2019-03-08T18:45:38.057Z,57.51
2019-03-08T18:48:15.947Z,56.99
2019-03-08T18:51:11.320Z,57.09
2019-03-08T18:54:03.766Z,57.52
2019-03-08T18:56:48.452Z,57.58
2019-03-08T18:59:40.458Z,57.24
2019-03-08T19:02:28.988Z,57.52
2019-03-08T19:05:24.387Z,57.18
2019-03-08T19:08:13.586Z,57.29
2019-03-08T19:11:15.006Z,57.41
2019-03-08T19:13:59.779Z,57.25
2019-03-08T19:16:46.222Z,57.50
2019-03-08T19:19:22.740Z,57.35
2019-03-08T19:22:26.676Z,57.53
2019-03-08T19:25:08.961Z,57.91
2019-03-08T19:27:43.593Z,57.27
2019-03-08T19:30:35.625Z,57.64
2019-03-08T19:33:31.492Z,57.52
2019-03-08T19:36:07.519Z,57.45
2019-03-08T19:38:41.093Z,56.73
2019-03-08T19:41:26.187Z,57.29
2019-03-08T19:44:09.616Z,57.05
2019-03-08T19:46:59.581Z,57.07
2019-03-08T19:49:32.383Z,57.24
2019-03-08T19:52:28.026Z,57.28
2019-03-08T19:55:06.202Z,57.82
2019-03-08T19:57:56.303Z,57.58
2019-03-08T20:00:41.480Z,57.58
2019-03-08T20:03:26.712Z,57.46
2019-03-08T20:05:59.592Z,57.52
2019-03-08T20:08:38.170Z,57.74
2019-03-08T20:11:17.456Z,58.05
2019-03-08T20:14:10.243Z,58.10
2019-03-08T20:16:56.604Z,58.58
2019-03-08T20:19:41.610Z,57.84
2019-03-08T20:22:32.579Z,57.98
2019-03-08T20:25:06.516Z,57.96
2019-03-08T20:27:46.236Z,58.39
2019-03-08T20:30:38.770Z,57.79
2019-03-08T20:33:34.168Z,58.24
2019-03-08T20:36:15.260Z,58.15
2019-03-08T20:39:04.672Z,58.19
2019-03-08T20:41:45.595Z,58.46
2019-03-08T20:44:16.728Z,58.20
2019-03-08T20:46:56.591Z,58.62
2019-03-08T20:49:23.435Z,58.58
2019-03-08T20:51:50.110Z,58.91
2019-03-08T20:54:16.814Z,58.66
2019-03-08T20:56:48.075Z,58.87
2019-03-08T20:59:15.704Z,58.40
2019-03-08T21:01:44.161Z,58.56
2019-03-08T21:04:10.987Z,58.64
2019-03-08T21:06:39.036Z,58.88
2019-03-08T21:09:06.372Z,58.97
2019-03-08T21:11:33.902Z,58.47
2019-03-08T21:14:00.597Z,58.91
2019-03-08T21:16:28.806Z,58.36
2019-03-08T21:18:55.560Z,58.40
2019-03-08T21:21:22.618Z,58.55
2019-03-08T21:23:49.537Z,58.37
2019-03-08T21:26:16.256Z,58.45
2019-03-08T21:28:42.980Z,57.88
2019-03-08T21:31:09.721Z,57.75
2019-03-08T21:33:36.422Z,58.11
2019-03-08T21:36:03.213Z,57.60
2019-03-08T21:38:29.951Z,57.69
2019-03-08T21:40:56.715Z,57.97
2019-03-08T21:43:24.764Z,58.20
2019-03-08T21:45:51.519Z,57.83
2019-03-08T21:48:18.235Z,57.86
2019-03-08T21:50:44.954Z,57.42
2019-03-08T21:53:12.238Z,57.43
2019-03-08T21:55:40.067Z,57.44
2019-03-08T21:58:07.003Z,57.05
2019-03-08T22:00:33.794Z,57.83
2019-03-08T22:03:00.485Z,57.19
2019-03-08T22:05:30.325Z,57.35
2019-03-08T22:07:57.177Z,56.91
2019-03-08T22:10:45.420Z,56.93
2019-03-08T22:13:12.332Z,57.15
2019-03-08T22:15:39.025Z,57.54
2019-03-08T22:18:05.752Z,57.06
2019-03-08T22:20:32.849Z,57.29
2019-03-08T22:22:59.551Z,56.75
2019-03-08T22:25:26.275Z,56.93
2019-03-08T22:27:53.027Z,56.91
2019-03-08T22:30:19.773Z,56.98
2019-03-08T22:32:48.764Z,57.29
2019-03-08T22:35:15.608Z,57.46
2019-03-08T22:37:42.299Z,57.62
2019-03-08T22:40:11.817Z,57.64
2019-03-08T22:42:40.076Z,57.95
2019-03-08T22:45:09.171Z,58.27
2019-03-08T22:47:36.209Z,58.29
2019-03-08T22:50:03.107Z,58.69
2019-03-08T22:52:29.825Z,58.20
2019-03-08T22:54:57.217Z,58.11
2019-03-08T22:57:23.960Z,58.25
2019-03-08T22:59:51.000Z,58.08
2019-03-08T23:02:17.726Z,58.40
2019-03-08T23:04:44.882Z,58.19
2019-03-08T23:07:11.689Z,58.32
2019-03-08T23:09:38.494Z,58.68
2019-03-08T23:12:05.230Z,58.68
2019-03-08T23:14:33.242Z,58.55
2019-03-08T23:16:59.973Z,58.54
2019-03-08T23:19:26.681Z,58.52
2019-03-08T23:21:53.397Z,58.71
2019-03-08T23:24:22.207Z,58.48
2019-03-08T23:27:12.018Z,58.14
2019-03-08T23:29:47.675Z,58.46
2019-03-08T23:32:36.168Z,58.41
2019-03-08T23:35:03.012Z,58.28
2019-03-08T23:37:29.853Z,58.45
2019-03-08T23:39:56.553Z,58.56
2019-03-08T23:42:23.309Z,58.49
2019-03-08T23:44:50.050Z,58.49
2019-03-08T23:47:17.038Z,58.63
2019-03-08T23:49:43.793Z,58.13
2019-03-08T23:52:10.543Z,58.28
2019-03-08T23:54:37.269Z,58.94
2019-03-08T23:57:03.985Z,58.67
2019-03-08T23:59:32.232Z,58.52
